createdAt,value
2023-02-07T00:01:52.828Z,292.10
2023-02-07T00:04:25.722Z,300.80
2023-02-07T00:06:56.434Z,305.50
2023-02-07T00:09:27.120Z,326.00
2023-02-07T00:11:57.778Z,316.20
2023-02-07T00:14:28.574Z,305.50
2023-02-07T00:16:59.280Z,299.30
2023-02-07T00:19:29.989Z,300.30
2023-02-07T00:22:00.672Z,287.30
2023-02-07T00:24:31.270Z,290.10
2023-02-07T00:27:04.462Z,296.60
2023-02-07T00:29:35.493Z,291.60
2023-02-07T00:34:35.774Z,295.00
2023-02-07T00:37:07.085Z,315.10
2023-02-07T00:39:38.055Z,338.00
2023-02-07T00:42:08.977Z,369.40
2023-02-07T00:47:08.944Z,460.00
2023-02-07T00:49:39.632Z,501.70
2023-02-07T00:52:10.500Z,498.20
2023-02-07T00:54:41.178Z,446.90
2023-02-07T00:57:12.226Z,430.70
2023-02-07T01:02:12.013Z,415.60
2023-02-07T01:04:42.800Z,382.10
2023-02-07T01:07:13.481Z,380.40
2023-02-07T01:09:44.283Z,371.50
2023-02-07T01:12:14.996Z,346.60
2023-02-07T01:14:45.656Z,334.20
2023-02-07T01:17:16.349Z,300.30
2023-02-07T01:19:47.100Z,249.40
2023-02-07T01:22:17.801Z,231.60
2023-02-07T01:24:48.516Z,234.70
2023-02-07T01:27:19.172Z,237.20
2023-02-07T01:29:50.503Z,235.00
2023-02-07T01:32:21.234Z,236.70
2023-02-07T01:34:51.897Z,224.20
2023-02-07T01:37:22.594Z,232.00
2023-02-07T01:39:53.312Z,217.30
2023-02-07T01:45:28.081Z,217.50
2023-02-07T01:48:03.980Z,215.20
2023-02-07T01:50:35.438Z,229.70
2023-02-07T01:53:07.554Z,241.00
2023-02-07T01:55:40.172Z,258.60
2023-02-07T01:58:11.269Z,247.10
2023-02-07T02:00:42.368Z,237.90
2023-02-07T02:03:13.131Z,228.90
2023-02-07T02:05:45.828Z,238.60
2023-02-07T02:08:16.446Z,236.70
2023-02-07T02:11:02.085Z,208.50
2023-02-07T02:13:40.711Z,220.80
2023-02-07T02:16:20.321Z,211.30
2023-02-07T02:19:26.250Z,208.60
2023-02-07T02:22:19.022Z,214.20
2023-02-07T02:25:37.689Z,206.80
2023-02-07T02:28:30.509Z,196.20
2023-02-07T02:31:31.624Z,186.70
2023-02-07T02:34:07.632Z,180.40
2023-02-07T02:36:48.259Z,183.50
2023-02-07T02:39:27.923Z,207.70
2023-02-07T02:42:04.324Z,214.90
2023-02-07T02:44:42.630Z,208.50
2023-02-07T02:47:13.994Z,202.00
2023-02-07T02:49:45.914Z,210.00
2023-02-07T02:52:16.657Z,197.00
2023-02-07T02:54:47.261Z,201.20
2023-02-07T02:57:48.204Z,206.00
2023-02-07T03:00:57.677Z,197.20
2023-02-07T03:03:59.738Z,197.20
2023-02-07T03:06:41.743Z,204.00
2023-02-07T03:09:25.422Z,196.50
2023-02-07T03:12:19.020Z,206.30
2023-02-07T03:14:58.490Z,185.20
2023-02-07T03:17:34.652Z,194.00
2023-02-07T03:20:16.450Z,202.40
2023-02-07T03:22:48.349Z,210.60
2023-02-07T03:25:21.061Z,228.20
2023-02-07T03:27:53.411Z,205.50
2023-02-07T03:30:28.730Z,182.20
2023-02-07T03:33:05.822Z,192.00
2023-02-07T03:35:41.080Z,179.20
2023-02-07T03:38:12.011Z,183.10
2023-02-07T03:40:46.763Z,180.30
2023-02-07T03:43:22.556Z,180.80
2023-02-07T03:45:53.265Z,190.70
2023-02-07T03:48:24.629Z,176.50
2023-02-07T03:50:55.728Z,174.10
2023-02-07T03:55:55.438Z,193.40
2023-02-07T03:58:26.086Z,183.30
2023-02-07T04:00:56.729Z,181.60
2023-02-07T04:03:27.584Z,171.30
2023-02-07T04:08:27.536Z,180.20
2023-02-07T04:11:02.464Z,176.80
2023-02-07T04:13:33.242Z,171.20
2023-02-07T04:16:04.599Z,168.10
2023-02-07T04:18:35.639Z,175.70
2023-02-07T04:21:08.610Z,167.80
2023-02-07T04:23:39.272Z,169.70
2023-02-07T04:26:09.902Z,173.80
2023-02-07T04:28:40.572Z,174.10
2023-02-07T04:31:11.255Z,175.00
2023-02-07T04:33:42.008Z,173.80
2023-02-07T04:36:12.833Z,180.50
2023-02-07T04:38:43.940Z,180.60
2023-02-07T04:43:43.668Z,178.20
2023-02-07T04:46:14.319Z,185.60
2023-02-07T04:48:45.028Z,178.10
2023-02-07T04:53:46.542Z,166.30
2023-02-07T04:56:17.205Z,172.10
2023-02-07T04:58:47.913Z,161.50
2023-02-07T05:01:18.568Z,151.30
2023-02-07T05:03:49.313Z,138.90
2023-02-07T05:06:19.902Z,146.20
2023-02-07T05:08:50.903Z,146.10
2023-02-07T05:11:22.354Z,143.30
2023-02-07T05:13:53.073Z,148.10
2023-02-07T05:16:23.769Z,134.30
2023-02-07T05:19:17.348Z,142.60
2023-02-07T05:21:45.805Z,136.60
2023-02-07T05:24:16.534Z,146.50
2023-02-07T05:26:47.129Z,135.20
2023-02-07T05:29:17.962Z,141.80
2023-02-07T05:31:48.754Z,143.20
2023-02-07T05:36:48.671Z,128.20
2023-02-07T05:39:19.368Z,128.30
2023-02-07T05:41:49.974Z,134.90
2023-02-07T05:44:20.700Z,125.40
2023-02-07T05:46:52.708Z,129.80
2023-02-07T05:49:23.543Z,126.90
2023-02-07T05:51:54.153Z,127.20
2023-02-07T05:54:24.970Z,126.30
2023-02-07T05:56:55.649Z,126.10
2023-02-07T05:59:26.278Z,114.90
2023-02-07T06:01:56.859Z,119.10
2023-02-07T06:04:27.887Z,115.50
2023-02-07T06:06:58.521Z,108.70
2023-02-07T06:09:29.312Z,115.50
2023-02-07T06:12:00.133Z,111.70
2023-02-07T06:14:30.889Z,112.50
2023-02-07T06:17:02.029Z,148.40
2023-02-07T06:19:32.719Z,138.00
2023-02-07T06:22:11.200Z,133.80
2023-02-07T06:24:50.350Z,138.30
2023-02-07T06:27:21.257Z,136.80
2023-02-07T06:29:52.112Z,126.70
2023-02-07T06:32:27.770Z,127.20
2023-02-07T06:35:01.386Z,127.20
2023-02-07T06:37:32.029Z,122.10
2023-02-07T06:40:02.821Z,129.00
2023-02-07T06:42:33.505Z,133.10
2023-02-07T06:45:06.301Z,128.70
2023-02-07T06:47:36.973Z,131.00
2023-02-07T06:50:15.113Z,131.00
2023-02-07T06:52:45.922Z,132.70
2023-02-07T06:55:17.031Z,122.70
2023-02-07T07:01:00.960Z,132.40
2023-02-07T07:03:31.789Z,137.50
2023-02-07T07:06:02.626Z,134.50
2023-02-07T07:08:33.269Z,137.50
2023-02-07T07:11:04.177Z,125.80
2023-02-07T07:13:34.991Z,132.60
2023-02-07T07:16:07.680Z,127.00
2023-02-07T07:18:38.734Z,131.20
2023-02-07T07:23:38.960Z,150.20
2023-02-07T07:26:09.701Z,154.90
2023-02-07T07:28:40.297Z,168.50
2023-02-07T07:31:13.967Z,154.30
2023-02-07T07:33:44.705Z,159.10
2023-02-07T07:36:15.488Z,154.60
2023-02-07T07:38:47.796Z,161.80
2023-02-07T07:41:18.937Z,150.60
2023-02-07T07:43:51.944Z,151.90
2023-02-07T07:46:22.992Z,153.30
2023-02-07T07:51:22.747Z,153.50
2023-02-07T07:53:53.476Z,149.30
2023-02-07T07:56:24.254Z,152.60
2023-02-07T07:58:56.266Z,146.90
2023-02-07T08:01:28.708Z,159.70
2023-02-07T08:04:10.231Z,181.40
2023-02-07T08:06:41.102Z,174.80
2023-02-07T08:09:11.738Z,153.10
2023-02-07T08:11:43.656Z,160.00
2023-02-07T08:14:18.092Z,151.70
2023-02-07T08:17:21.960Z,135.70
2023-02-07T08:19:44.963Z,131.80
2023-02-07T08:22:15.657Z,135.60
2023-02-07T08:24:46.486Z,128.10
2023-02-07T08:27:17.135Z,130.90
2023-02-07T08:29:57.720Z,121.00
2023-02-07T08:32:28.586Z,109.10
2023-02-07T08:34:59.548Z,109.20
2023-02-07T08:37:31.382Z,100.10
2023-02-07T08:40:02.309Z,87.80
2023-02-07T08:42:33.475Z,82.10
2023-02-07T08:45:09.387Z,79.60
2023-02-07T08:47:40.495Z,78.80
2023-02-07T08:50:18.976Z,72.60
2023-02-07T08:52:50.710Z,76.00
2023-02-07T08:55:24.208Z,65.60
2023-02-07T08:57:55.054Z,66.50
2023-02-07T09:00:25.930Z,69.90
2023-02-07T09:02:56.646Z,70.10
2023-02-07T09:05:27.338Z,68.30
2023-02-07T09:08:02.385Z,62.10
2023-02-07T09:10:37.015Z,73.00
2023-02-07T09:13:07.722Z,82.20
2023-02-07T09:15:38.501Z,89.80
2023-02-07T09:18:10.956Z,84.60
2023-02-07T09:20:43.846Z,99.00
2023-02-07T09:23:14.533Z,69.90
2023-02-07T09:25:45.973Z,66.40
2023-02-07T09:28:17.030Z,63.90
2023-02-07T09:30:54.249Z,65.00
2023-02-07T09:33:25.524Z,72.50
2023-02-07T09:36:02.088Z,67.30
2023-02-07T09:38:33.064Z,70.70
2023-02-07T09:41:03.741Z,59.50
2023-02-07T09:43:47.672Z,55.50
2023-02-07T09:46:23.790Z,55.90
2023-02-07T09:49:02.412Z,54.50
2023-02-07T09:51:35.865Z,55.90
2023-02-07T09:54:15.233Z,49.20
2023-02-07T09:56:47.189Z,51.70
2023-02-07T09:59:24.655Z,48.00
2023-02-07T10:02:01.394Z,51.50
2023-02-07T10:04:48.615Z,51.50
2023-02-07T10:07:50.309Z,48.00
2023-02-07T10:10:18.232Z,44.40
2023-02-07T10:13:08.492Z,46.60
2023-02-07T10:15:53.706Z,48.10
2023-02-07T10:18:44.617Z,49.10
2023-02-07T10:21:25.244Z,50.30
2023-02-07T10:24:27.784Z,42.90
2023-02-07T10:27:06.066Z,57.40
2023-02-07T10:29:50.609Z,49.30
2023-02-07T10:32:33.926Z,49.00
2023-02-07T10:35:14.978Z,53.10
2023-02-07T10:38:12.258Z,46.80
2023-02-07T10:40:50.251Z,49.60
2023-02-07T10:43:28.864Z,45.00
2023-02-07T10:46:06.127Z,46.10
2023-02-07T10:48:38.663Z,43.10
2023-02-07T10:51:25.064Z,45.50
2023-02-07T10:54:07.718Z,47.30
2023-02-07T10:56:43.303Z,49.60
2023-02-07T10:59:35.732Z,44.70
2023-02-07T11:02:45.755Z,42.80
2023-02-07T11:05:50.754Z,46.20
2023-02-07T11:08:42.389Z,47.20
2023-02-07T11:11:31.404Z,45.20
2023-02-07T11:14:06.784Z,43.40
2023-02-07T11:16:43.178Z,48.10
2023-02-07T11:19:19.056Z,45.60
2023-02-07T11:21:51.900Z,48.00
2023-02-07T11:24:28.317Z,46.30
2023-02-07T11:27:07.050Z,43.20
2023-02-07T11:29:44.690Z,44.50
2023-02-07T11:32:17.020Z,42.60
2023-02-07T11:34:51.196Z,45.10
2023-02-07T11:37:28.138Z,40.40
2023-02-07T11:40:20.717Z,42.80
2023-02-07T11:42:57.699Z,42.70
2023-02-07T11:45:29.895Z,42.50
2023-02-07T11:48:01.806Z,36.00
2023-02-07T11:50:39.330Z,33.90
2023-02-07T11:53:45.310Z,35.80
2023-02-07T11:56:24.121Z,33.90
2023-02-07T11:58:55.654Z,31.40
2023-02-07T12:02:30.745Z,41.80
2023-02-07T12:05:25.264Z,32.50
2023-02-07T12:08:02.372Z,34.90
2023-02-07T12:10:36.739Z,35.30
2023-02-07T12:13:11.791Z,41.60
2023-02-07T12:15:47.822Z,28.70
2023-02-07T12:18:26.360Z,22.20
2023-02-07T12:21:02.374Z,23.50
2023-02-07T12:23:46.352Z,30.20
2023-02-07T12:26:22.874Z,28.60
2023-02-07T12:29:13.059Z,34.30
2023-02-07T12:31:51.169Z,39.00
2023-02-07T12:34:27.650Z,33.20
2023-02-07T12:37:05.511Z,31.50
2023-02-07T12:39:43.338Z,38.90
2023-02-07T12:42:29.752Z,31.80
2023-02-07T12:45:02.517Z,28.80
2023-02-07T12:47:48.757Z,30.80
2023-02-07T12:50:39.112Z,28.00
2023-02-07T12:53:21.904Z,32.90
2023-02-07T12:56:03.126Z,31.70
2023-02-07T13:01:19.750Z,34.50
2023-02-07T13:04:25.092Z,33.60
2023-02-07T13:07:08.276Z,40.90
2023-02-07T13:09:46.247Z,45.60
2023-02-07T13:12:26.645Z,39.90
2023-02-07T13:15:09.829Z,46.90
2023-02-07T13:17:50.544Z,45.70
2023-02-07T13:20:33.041Z,36.20
2023-02-07T13:23:10.525Z,46.80
2023-02-07T13:25:44.521Z,38.30
2023-02-07T13:28:22.854Z,39.50
2023-02-07T13:30:54.874Z,41.50
2023-02-07T13:33:38.431Z,47.00
2023-02-07T13:36:17.850Z,48.80
2023-02-07T13:39:18.026Z,39.10
2023-02-07T13:42:07.938Z,40.60
2023-02-07T13:44:45.800Z,40.80
2023-02-07T13:47:44.328Z,46.40
2023-02-07T13:50:33.698Z,44.80
2023-02-07T13:53:12.207Z,49.10
2023-02-07T13:55:44.413Z,43.90
2023-02-07T13:58:45.612Z,45.10
2023-02-07T14:01:20.372Z,48.90
2023-02-07T14:04:14.853Z,60.60
2023-02-07T14:06:56.286Z,55.20
2023-02-07T14:09:33.686Z,56.10
2023-02-07T14:12:07.287Z,53.20
2023-02-07T14:14:39.243Z,53.10
2023-02-07T14:17:13.855Z,41.00
2023-02-07T14:19:52.798Z,43.60
2023-02-07T14:22:26.619Z,38.40
2023-02-07T14:25:40.756Z,43.20
2023-02-07T14:28:32.463Z,43.70
2023-02-07T14:31:23.305Z,48.60
2023-02-07T14:34:14.777Z,51.80
2023-02-07T14:36:45.529Z,48.10
2023-02-07T14:39:33.355Z,50.90
2023-02-07T14:42:16.342Z,49.40
2023-02-07T14:44:48.434Z,47.50
2023-02-07T14:47:25.293Z,57.60
2023-02-07T14:49:58.498Z,54.90
2023-02-07T14:53:03.664Z,57.30
2023-02-07T14:55:45.730Z,74.40
2023-02-07T14:58:26.395Z,80.50
2023-02-07T15:01:00.629Z,61.70
2023-02-07T15:03:34.816Z,60.20
2023-02-07T15:06:23.814Z,83.90
2023-02-07T15:09:02.636Z,93.00
2023-02-07T15:14:05.356Z,70.30
2023-02-07T15:16:36.927Z,56.90
2023-02-07T15:19:14.992Z,59.20
2023-02-07T15:21:47.962Z,55.70
2023-02-07T15:24:23.645Z,58.40
2023-02-07T15:26:58.511Z,51.30
2023-02-07T15:29:31.396Z,62.70
2023-02-07T15:32:11.731Z,73.30
2023-02-07T15:34:44.766Z,123.30
2023-02-07T15:37:19.529Z,132.00
2023-02-07T15:39:52.003Z,150.30
2023-02-07T15:42:23.429Z,112.40
2023-02-07T15:44:58.123Z,117.80
2023-02-07T15:47:36.783Z,104.80
2023-02-07T15:50:23.146Z,118.20
2023-02-07T15:52:56.499Z,116.00
2023-02-07T15:55:32.729Z,101.20
2023-02-07T15:58:04.654Z,116.40
2023-02-07T16:00:40.039Z,132.40
2023-02-07T16:03:18.556Z,131.80
2023-02-07T16:05:49.719Z,148.70
2023-02-07T16:11:19.937Z,133.50
2023-02-07T16:13:54.088Z,145.50
2023-02-07T16:16:27.495Z,153.50
2023-02-07T16:19:08.350Z,158.70
2023-02-07T16:21:38.952Z,140.50
2023-02-07T16:24:14.917Z,138.80
2023-02-07T16:26:46.712Z,152.80
2023-02-07T16:29:22.653Z,156.50
2023-02-07T16:31:54.233Z,150.00
2023-02-07T16:34:25.451Z,134.40
2023-02-07T16:39:25.876Z,129.30
2023-02-07T16:42:02.728Z,128.20
2023-02-07T16:44:35.602Z,132.20
2023-02-07T16:47:06.546Z,132.70
2023-02-07T16:49:39.768Z,130.20
2023-02-07T16:52:10.576Z,118.00
2023-02-07T16:54:41.564Z,117.70
2023-02-07T16:57:44.936Z,121.00
2023-02-07T17:00:16.777Z,123.90
2023-02-07T17:02:47.867Z,118.10
2023-02-07T17:05:20.046Z,121.60
2023-02-07T17:07:51.207Z,111.40
2023-02-07T17:13:03.525Z,98.70
2023-02-07T17:15:34.782Z,92.80
2023-02-07T17:18:06.093Z,87.60
2023-02-07T17:20:36.905Z,87.70
2023-02-07T17:23:09.437Z,84.90
2023-02-07T17:25:46.779Z,82.70
2023-02-07T17:28:17.767Z,89.20
2023-02-07T17:30:48.473Z,88.40
2023-02-07T17:33:19.314Z,88.40
2023-02-07T17:35:50.126Z,85.70
2023-02-07T17:38:20.758Z,93.00
2023-02-07T17:40:51.398Z,102.60
2023-02-07T17:43:23.287Z,102.80
2023-02-07T17:45:56.882Z,109.80
2023-02-07T17:48:27.716Z,118.60
2023-02-07T17:50:58.669Z,106.00
2023-02-07T17:53:29.818Z,121.70
2023-02-07T17:56:00.581Z,126.20
2023-02-07T17:58:31.552Z,133.20
2023-02-07T18:01:02.690Z,126.10
2023-02-07T18:03:33.615Z,136.30
2023-02-07T18:06:11.264Z,142.60
2023-02-07T18:08:42.578Z,174.50
2023-02-07T18:11:13.955Z,168.50
2023-02-07T18:13:47.190Z,173.20
2023-02-07T18:16:20.048Z,180.00
2023-02-07T18:18:52.154Z,199.60
2023-02-07T18:21:26.256Z,223.40
2023-02-07T18:23:57.115Z,274.00
2023-02-07T18:26:28.082Z,277.70
2023-02-07T18:31:28.673Z,402.80
2023-02-07T18:33:59.522Z,467.90
2023-02-07T18:36:30.388Z,529.40
2023-02-07T18:39:01.302Z,511.20
2023-02-07T18:41:32.107Z,486.00
2023-02-07T18:44:02.691Z,456.10
2023-02-07T18:46:33.411Z,436.10
2023-02-07T18:49:04.398Z,460.60
2023-02-07T18:51:55.228Z,451.70
2023-02-07T18:54:31.848Z,465.00
2023-02-07T18:57:02.640Z,487.20
2023-02-07T18:59:37.092Z,477.90
2023-02-07T19:02:08.247Z,467.00
2023-02-07T19:07:07.923Z,444.30
2023-02-07T19:09:38.593Z,452.50
2023-02-07T19:12:33.240Z,470.40
2023-02-07T19:15:24.800Z,493.80
2023-02-07T19:20:21.760Z,377.60
2023-02-07T19:22:52.389Z,337.00
2023-02-07T19:25:23.009Z,349.30
2023-02-07T19:27:53.949Z,368.30
2023-02-07T19:30:25.014Z,369.80
2023-02-07T19:32:55.647Z,375.00
2023-02-07T19:35:26.227Z,372.80
2023-02-07T19:38:01.102Z,383.60
2023-02-07T19:40:31.873Z,387.30
2023-02-07T19:43:23.250Z,389.70
2023-02-07T19:45:54.548Z,404.70
2023-02-07T19:51:01.316Z,408.90
2023-02-07T19:53:32.944Z,399.80
2023-02-07T19:56:05.701Z,404.90
2023-02-07T19:58:40.006Z,408.50
2023-02-07T20:01:11.963Z,431.30
2023-02-07T20:03:43.764Z,470.60
2023-02-07T20:06:15.420Z,474.80
2023-02-07T20:08:46.082Z,483.60
2023-02-07T20:11:18.933Z,482.60
2023-02-07T20:13:52.838Z,482.10
2023-02-07T20:16:25.741Z,496.30
2023-02-07T20:18:56.986Z,504.60
2023-02-07T20:23:59.833Z,478.40
2023-02-07T20:26:32.984Z,501.30
2023-02-07T20:29:07.362Z,505.00
2023-02-07T20:31:40.667Z,472.10
2023-02-07T20:34:11.820Z,477.80
2023-02-07T20:39:14.993Z,528.60
2023-02-07T20:41:46.247Z,527.50
2023-02-07T20:44:22.072Z,556.70
2023-02-07T20:46:53.400Z,537.60
2023-02-07T20:49:28.678Z,521.90
2023-02-07T20:52:00.390Z,521.70
2023-02-07T20:54:32.102Z,563.10
2023-02-07T20:57:02.884Z,580.20
2023-02-07T21:02:23.191Z,536.30
2023-02-07T21:04:53.910Z,499.20
2023-02-07T21:07:24.871Z,490.20
2023-02-07T21:09:57.670Z,450.80
2023-02-07T21:12:30.676Z,451.40
2023-02-07T21:15:02.604Z,483.30
2023-02-07T21:17:33.274Z,465.30
2023-02-07T21:23:02.978Z,452.50
2023-02-07T21:25:33.740Z,419.00
2023-02-07T21:28:04.480Z,436.40
2023-02-07T21:30:36.059Z,428.70
2023-02-07T21:33:07.621Z,383.40
2023-02-07T21:35:48.235Z,348.90
2023-02-07T21:38:18.974Z,322.80
2023-02-07T21:40:49.778Z,303.40
2023-02-07T21:43:20.448Z,288.00
2023-02-07T21:45:51.178Z,275.00
2023-02-07T21:48:21.876Z,283.80
2023-02-07T21:50:52.782Z,281.10
2023-02-07T21:53:23.376Z,248.60
2023-02-07T21:55:54.062Z,263.30
2023-02-07T21:58:26.688Z,269.00
2023-02-07T22:01:03.953Z,285.40
2023-02-07T22:03:34.663Z,289.00
2023-02-07T22:06:06.369Z,302.40
2023-02-07T22:08:38.467Z,284.00
2023-02-07T22:11:11.063Z,297.00
2023-02-07T22:13:45.881Z,278.50
2023-02-07T22:16:17.525Z,247.90
2023-02-07T22:18:48.458Z,235.60
2023-02-07T22:21:23.209Z,241.30
2023-02-07T22:23:55.247Z,226.80
2023-02-07T22:26:27.208Z,332.20
2023-02-07T22:28:58.500Z,410.60
2023-02-07T22:31:31.333Z,464.50
2023-02-07T22:34:04.227Z,490.00
2023-02-07T22:36:37.598Z,473.10
2023-02-07T22:39:09.304Z,457.60
2023-02-07T22:41:42.018Z,433.90
2023-02-07T22:44:12.858Z,449.20
2023-02-07T22:46:43.577Z,424.80
2023-02-07T22:49:14.310Z,407.70
2023-02-07T22:51:45.009Z,359.40
2023-02-07T22:54:17.604Z,370.70
2023-02-07T22:56:48.580Z,342.00
2023-02-07T22:59:19.230Z,351.80
2023-02-07T23:01:50.613Z,347.20
2023-02-07T23:04:21.362Z,358.80
2023-02-07T23:06:52.965Z,344.50
2023-02-07T23:09:23.703Z,360.80
2023-02-07T23:11:54.447Z,348.30
2023-02-07T23:14:25.374Z,350.70
2023-02-07T23:19:25.626Z,285.50
2023-02-07T23:22:01.022Z,258.40
2023-02-07T23:24:31.678Z,241.50
2023-02-07T23:27:02.683Z,207.90
2023-02-07T23:29:33.900Z,189.10
2023-02-07T23:34:34.139Z,172.90
2023-02-07T23:39:33.860Z,150.70
2023-02-07T23:42:04.638Z,149.80
2023-02-07T23:44:35.340Z,162.50
2023-02-07T23:49:36.569Z,125.50
2023-02-07T23:52:07.334Z,127.00
2023-02-07T23:54:38.151Z,112.70
2023-02-07T23:57:09.159Z,117.10
2023-02-07T23:59:42.734Z,96.00
